sensor_id;sensor_type;location;lat;lon;timestamp;P1;durP1;ratioP1;P2;durP2;ratioP2
61188;SDS011;47054;39.716;2.904;2023-01-08T00:01:25;6.15;;;2.58;;
61188;SDS011;47054;39.716;2.904;2023-01-08T00:04:09;4.57;;;2.70;;
61188;SDS011;47054;39.716;2.904;2023-01-08T00:06:54;4.55;;;2.30;;
61188;SDS011;47054;39.716;2.904;2023-01-08T00:09:38;4.93;;;2.40;;
61188;SDS011;47054;39.716;2.904;2023-01-08T00:12:23;3.83;;;2.20;;
61188;SDS011;47054;39.716;2.904;2023-01-08T00:15:08;5.25;;;2.55;;
61188;SDS011;47054;39.716;2.904;2023-01-08T00:17:53;6.10;;;2.50;;
61188;SDS011;47054;39.716;2.904;2023-01-08T00:20:42;4.45;;;2.50;;
61188;SDS011;47054;39.716;2.904;2023-01-08T00:23:27;4.85;;;2.30;;
61188;SDS011;47054;39.716;2.904;2023-01-08T00:26:12;4.38;;;2.38;;
61188;SDS011;47054;39.716;2.904;2023-01-08T00:28:57;3.63;;;2.28;;
61188;SDS011;47054;39.716;2.904;2023-01-08T00:31:42;4.72;;;2.58;;
61188;SDS011;47054;39.716;2.904;2023-01-08T00:34:28;4.78;;;2.08;;
61188;SDS011;47054;39.716;2.904;2023-01-08T00:37:13;4.43;;;2.30;;
61188;SDS011;47054;39.716;2.904;2023-01-08T00:40:01;4.30;;;2.38;;
61188;SDS011;47054;39.716;2.904;2023-01-08T00:42:46;4.88;;;2.28;;
61188;SDS011;47054;39.716;2.904;2023-01-08T00:45:31;4.15;;;2.30;;
61188;SDS011;47054;39.716;2.904;2023-01-08T00:48:16;5.95;;;2.50;;
61188;SDS011;47054;39.716;2.904;2023-01-08T00:51:01;4.57;;;2.38;;
61188;SDS011;47054;39.716;2.904;2023-01-08T00:53:46;3.90;;;2.10;;
61188;SDS011;47054;39.716;2.904;2023-01-08T00:56:31;5.68;;;2.70;;
61188;SDS011;47054;39.716;2.904;2023-01-08T00:59:15;4.78;;;2.10;;
61188;SDS011;47054;39.716;2.904;2023-01-08T01:01:59;4.43;;;2.38;;
61188;SDS011;47054;39.716;2.904;2023-01-08T01:04:44;5.20;;;2.40;;
61188;SDS011;47054;39.716;2.904;2023-01-08T01:07:29;3.90;;;2.17;;
61188;SDS011;47054;39.716;2.904;2023-01-08T01:10:13;4.43;;;2.13;;
61188;SDS011;47054;39.716;2.904;2023-01-08T01:13:00;4.65;;;2.35;;
61188;SDS011;47054;39.716;2.904;2023-01-08T01:15:44;5.68;;;2.25;;
61188;SDS011;47054;39.716;2.904;2023-01-08T01:18:29;3.33;;;2.10;;
61188;SDS011;47054;39.716;2.904;2023-01-08T01:21:17;4.22;;;2.20;;
61188;SDS011;47054;39.716;2.904;2023-01-08T01:24:09;4.55;;;2.50;;
61188;SDS011;47054;39.716;2.904;2023-01-08T01:26:56;4.20;;;2.60;;
61188;SDS011;47054;39.716;2.904;2023-01-08T01:29:40;4.22;;;2.53;;
61188;SDS011;47054;39.716;2.904;2023-01-08T01:32:25;6.38;;;2.38;;
61188;SDS011;47054;39.716;2.904;2023-01-08T01:35:09;3.72;;;2.17;;
61188;SDS011;47054;39.716;2.904;2023-01-08T01:37:54;4.90;;;2.78;;
61188;SDS011;47054;39.716;2.904;2023-01-08T01:40:42;3.97;;;2.40;;
61188;SDS011;47054;39.716;2.904;2023-01-08T01:43:37;4.65;;;2.20;;
61188;SDS011;47054;39.716;2.904;2023-01-08T01:49:23;5.03;;;2.50;;
61188;SDS011;47054;39.716;2.904;2023-01-08T01:52:08;6.68;;;2.47;;
61188;SDS011;47054;39.716;2.904;2023-01-08T01:54:55;5.55;;;2.20;;
61188;SDS011;47054;39.716;2.904;2023-01-08T01:57:43;4.57;;;2.33;;
61188;SDS011;47054;39.716;2.904;2023-01-08T02:00:33;3.28;;;1.90;;
61188;SDS011;47054;39.716;2.904;2023-01-08T02:03:26;4.45;;;2.22;;
61188;SDS011;47054;39.716;2.904;2023-01-08T02:09:16;4.82;;;2.42;;
61188;SDS011;47054;39.716;2.904;2023-01-08T02:12:10;3.80;;;2.08;;
61188;SDS011;47054;39.716;2.904;2023-01-08T02:18:12;4.47;;;2.80;;
61188;SDS011;47054;39.716;2.904;2023-01-08T02:21:08;4.57;;;2.40;;
61188;SDS011;47054;39.716;2.904;2023-01-08T02:24:02;5.95;;;2.42;;
61188;SDS011;47054;39.716;2.904;2023-01-08T02:26:55;4.60;;;2.58;;
61188;SDS011;47054;39.716;2.904;2023-01-08T02:29:43;5.72;;;2.70;;
61188;SDS011;47054;39.716;2.904;2023-01-08T02:32:31;3.50;;;2.03;;
61188;SDS011;47054;39.716;2.904;2023-01-08T02:35:19;3.47;;;2.00;;
61188;SDS011;47054;39.716;2.904;2023-01-08T02:38:05;4.60;;;2.55;;
61188;SDS011;47054;39.716;2.904;2023-01-08T02:40:56;4.30;;;2.20;;
61188;SDS011;47054;39.716;2.904;2023-01-08T02:43:49;4.70;;;2.45;;
61188;SDS011;47054;39.716;2.904;2023-01-08T02:46:36;3.92;;;2.40;;
61188;SDS011;47054;39.716;2.904;2023-01-08T02:49:23;4.30;;;2.45;;
61188;SDS011;47054;39.716;2.904;2023-01-08T02:52:14;4.18;;;2.33;;
61188;SDS011;47054;39.716;2.904;2023-01-08T02:55:01;4.47;;;2.40;;
61188;SDS011;47054;39.716;2.904;2023-01-08T02:57:47;5.53;;;2.45;;
61188;SDS011;47054;39.716;2.904;2023-01-08T03:00:32;4.07;;;2.30;;
61188;SDS011;47054;39.716;2.904;2023-01-08T03:03:20;5.35;;;2.30;;
61188;SDS011;47054;39.716;2.904;2023-01-08T03:06:11;4.47;;;2.35;;
61188;SDS011;47054;39.716;2.904;2023-01-08T03:08:58;5.70;;;2.47;;
61188;SDS011;47054;39.716;2.904;2023-01-08T03:11:56;4.65;;;2.13;;
61188;SDS011;47054;39.716;2.904;2023-01-08T03:14:55;4.20;;;2.40;;
61188;SDS011;47054;39.716;2.904;2023-01-08T03:17:45;5.32;;;2.58;;
61188;SDS011;47054;39.716;2.904;2023-01-08T03:20:33;6.28;;;2.65;;
61188;SDS011;47054;39.716;2.904;2023-01-08T03:23:20;3.67;;;2.00;;
61188;SDS011;47054;39.716;2.904;2023-01-08T03:26:07;4.85;;;2.47;;
61188;SDS011;47054;39.716;2.904;2023-01-08T03:28:53;4.15;;;2.22;;
61188;SDS011;47054;39.716;2.904;2023-01-08T03:31:40;4.97;;;2.22;;
61188;SDS011;47054;39.716;2.904;2023-01-08T03:34:26;4.57;;;2.35;;
61188;SDS011;47054;39.716;2.904;2023-01-08T03:37:14;5.13;;;2.75;;
61188;SDS011;47054;39.716;2.904;2023-01-08T03:42:53;4.22;;;2.42;;
61188;SDS011;47054;39.716;2.904;2023-01-08T03:45:39;4.22;;;2.17;;
61188;SDS011;47054;39.716;2.904;2023-01-08T03:48:30;5.13;;;2.57;;
61188;SDS011;47054;39.716;2.904;2023-01-08T03:51:17;4.15;;;2.17;;
61188;SDS011;47054;39.716;2.904;2023-01-08T03:54:02;6.47;;;2.50;;
61188;SDS011;47054;39.716;2.904;2023-01-08T03:56:46;4.22;;;2.30;;
61188;SDS011;47054;39.716;2.904;2023-01-08T03:59:31;4.97;;;2.35;;
61188;SDS011;47054;39.716;2.904;2023-01-08T04:02:15;4.15;;;2.40;;
61188;SDS011;47054;39.716;2.904;2023-01-08T04:05:00;3.72;;;2.03;;
61188;SDS011;47054;39.716;2.904;2023-01-08T04:07:45;4.63;;;2.40;;
61188;SDS011;47054;39.716;2.904;2023-01-08T04:10:29;4.40;;;2.35;;
61188;SDS011;47054;39.716;2.904;2023-01-08T04:13:14;3.53;;;2.08;;
61188;SDS011;47054;39.716;2.904;2023-01-08T04:15:58;5.15;;;2.25;;
61188;SDS011;47054;39.716;2.904;2023-01-08T04:18:43;6.00;;;2.30;;
61188;SDS011;47054;39.716;2.904;2023-01-08T04:21:27;3.42;;;2.17;;
61188;SDS011;47054;39.716;2.904;2023-01-08T04:24:12;4.20;;;2.20;;
61188;SDS011;47054;39.716;2.904;2023-01-08T04:26:57;4.32;;;2.42;;
61188;SDS011;47054;39.716;2.904;2023-01-08T04:29:42;4.57;;;2.20;;
61188;SDS011;47054;39.716;2.904;2023-01-08T04:32:27;4.57;;;2.22;;
61188;SDS011;47054;39.716;2.904;2023-01-08T04:35:11;5.22;;;2.30;;
61188;SDS011;47054;39.716;2.904;2023-01-08T04:37:56;3.75;;;2.10;;
61188;SDS011;47054;39.716;2.904;2023-01-08T04:40:40;3.85;;;2.10;;
61188;SDS011;47054;39.716;2.904;2023-01-08T04:43:25;4.13;;;2.20;;
61188;SDS011;47054;39.716;2.904;2023-01-08T04:46:11;4.65;;;2.38;;
61188;SDS011;47054;39.716;2.904;2023-01-08T04:48:55;5.18;;;2.45;;
61188;SDS011;47054;39.716;2.904;2023-01-08T04:51:40;4.68;;;2.22;;
61188;SDS011;47054;39.716;2.904;2023-01-08T04:54:24;4.43;;;2.28;;
61188;SDS011;47054;39.716;2.904;2023-01-08T04:57:09;3.17;;;2.00;;
61188;SDS011;47054;39.716;2.904;2023-01-08T04:59:54;3.80;;;2.08;;
61188;SDS011;47054;39.716;2.904;2023-01-08T05:02:38;4.68;;;2.35;;
61188;SDS011;47054;39.716;2.904;2023-01-08T05:05:24;3.47;;;2.10;;
61188;SDS011;47054;39.716;2.904;2023-01-08T05:08:09;3.67;;;2.00;;
61188;SDS011;47054;39.716;2.904;2023-01-08T05:10:53;4.18;;;2.47;;
61188;SDS011;47054;39.716;2.904;2023-01-08T05:13:37;3.92;;;2.10;;
61188;SDS011;47054;39.716;2.904;2023-01-08T05:16:22;4.10;;;2.10;;
61188;SDS011;47054;39.716;2.904;2023-01-08T05:19:07;3.53;;;2.15;;
61188;SDS011;47054;39.716;2.904;2023-01-08T05:21:52;4.85;;;2.60;;
61188;SDS011;47054;39.716;2.904;2023-01-08T05:24:36;5.28;;;2.30;;
61188;SDS011;47054;39.716;2.904;2023-01-08T05:27:20;4.20;;;2.30;;
61188;SDS011;47054;39.716;2.904;2023-01-08T05:30:05;3.83;;;2.13;;
61188;SDS011;47054;39.716;2.904;2023-01-08T05:32:50;4.18;;;2.20;;
61188;SDS011;47054;39.716;2.904;2023-01-08T05:35:37;4.07;;;2.00;;
61188;SDS011;47054;39.716;2.904;2023-01-08T05:38:22;3.47;;;2.20;;
61188;SDS011;47054;39.716;2.904;2023-01-08T05:41:07;3.75;;;2.30;;
61188;SDS011;47054;39.716;2.904;2023-01-08T05:43:52;3.70;;;2.00;;
61188;SDS011;47054;39.716;2.904;2023-01-08T05:46:37;4.68;;;2.30;;
61188;SDS011;47054;39.716;2.904;2023-01-08T05:49:22;3.50;;;1.98;;
61188;SDS011;47054;39.716;2.904;2023-01-08T05:52:07;4.65;;;2.42;;
61188;SDS011;47054;39.716;2.904;2023-01-08T05:54:52;4.40;;;2.10;;
61188;SDS011;47054;39.716;2.904;2023-01-08T05:57:36;6.70;;;1.67;;
61188;SDS011;47054;39.716;2.904;2023-01-08T06:00:21;19.23;;;3.25;;
61188;SDS011;47054;39.716;2.904;2023-01-08T06:03:09;3.47;;;1.70;;
61188;SDS011;47054;39.716;2.904;2023-01-08T06:05:58;6.82;;;2.05;;
61188;SDS011;47054;39.716;2.904;2023-01-08T06:08:46;11.52;;;1.77;;
61188;SDS011;47054;39.716;2.904;2023-01-08T06:11:31;4.10;;;1.75;;
61188;SDS011;47054;39.716;2.904;2023-01-08T06:14:16;4.40;;;2.00;;
61188;SDS011;47054;39.716;2.904;2023-01-08T06:17:00;5.32;;;1.70;;
61188;SDS011;47054;39.716;2.904;2023-01-08T06:19:45;2.80;;;1.63;;
61188;SDS011;47054;39.716;2.904;2023-01-08T06:22:30;3.67;;;1.88;;
61188;SDS011;47054;39.716;2.904;2023-01-08T06:25:15;8.82;;;1.80;;
61188;SDS011;47054;39.716;2.904;2023-01-08T06:28:01;3.15;;;1.40;;
61188;SDS011;47054;39.716;2.904;2023-01-08T06:30:47;3.20;;;1.52;;
61188;SDS011;47054;39.716;2.904;2023-01-08T06:33:31;5.35;;;1.67;;
61188;SDS011;47054;39.716;2.904;2023-01-08T06:36:16;4.10;;;1.50;;
61188;SDS011;47054;39.716;2.904;2023-01-08T06:39:00;2.45;;;1.35;;
61188;SDS011;47054;39.716;2.904;2023-01-08T06:41:45;2.63;;;1.60;;
61188;SDS011;47054;39.716;2.904;2023-01-08T06:44:29;2.53;;;1.52;;
61188;SDS011;47054;39.716;2.904;2023-01-08T06:47:14;2.75;;;1.30;;
61188;SDS011;47054;39.716;2.904;2023-01-08T06:49:58;5.65;;;1.60;;
61188;SDS011;47054;39.716;2.904;2023-01-08T06:52:43;2.50;;;1.35;;
61188;SDS011;47054;39.716;2.904;2023-01-08T06:55:27;4.75;;;1.50;;
61188;SDS011;47054;39.716;2.904;2023-01-08T06:58:12;2.38;;;1.30;;
61188;SDS011;47054;39.716;2.904;2023-01-08T07:00:56;3.13;;;1.40;;
61188;SDS011;47054;39.716;2.904;2023-01-08T07:03:42;4.20;;;1.30;;
61188;SDS011;47054;39.716;2.904;2023-01-08T07:06:29;9.23;;;1.55;;
61188;SDS011;47054;39.716;2.904;2023-01-08T07:09:13;12.45;;;1.98;;
61188;SDS011;47054;39.716;2.904;2023-01-08T07:11:58;18.65;;;1.85;;
61188;SDS011;47054;39.716;2.904;2023-01-08T07:14:43;4.22;;;1.10;;
61188;SDS011;47054;39.716;2.904;2023-01-08T07:17:30;13.57;;;1.63;;
61188;SDS011;47054;39.716;2.904;2023-01-08T07:20:15;12.73;;;1.30;;
61188;SDS011;47054;39.716;2.904;2023-01-08T07:23:04;11.57;;;1.60;;
61188;SDS011;47054;39.716;2.904;2023-01-08T07:25:50;5.50;;;1.20;;
61188;SDS011;47054;39.716;2.904;2023-01-08T07:28:35;6.47;;;1.48;;
61188;SDS011;47054;39.716;2.904;2023-01-08T07:31:20;10.82;;;1.40;;
61188;SDS011;47054;39.716;2.904;2023-01-08T07:34:05;5.93;;;1.40;;
61188;SDS011;47054;39.716;2.904;2023-01-08T07:36:49;15.85;;;1.80;;
61188;SDS011;47054;39.716;2.904;2023-01-08T07:39:37;9.80;;;1.40;;
61188;SDS011;47054;39.716;2.904;2023-01-08T07:42:24;25.05;;;2.33;;
61188;SDS011;47054;39.716;2.904;2023-01-08T07:45:09;26.23;;;1.92;;
61188;SDS011;47054;39.716;2.904;2023-01-08T07:47:57;26.23;;;2.00;;
61188;SDS011;47054;39.716;2.904;2023-01-08T07:50:51;19.08;;;1.70;;
61188;SDS011;47054;39.716;2.904;2023-01-08T07:53:36;26.02;;;1.67;;
61188;SDS011;47054;39.716;2.904;2023-01-08T07:56:21;37.30;;;5.20;;
61188;SDS011;47054;39.716;2.904;2023-01-08T07:59:07;131.27;;;27.13;;
61188;SDS011;47054;39.716;2.904;2023-01-08T08:01:52;137.20;;;27.88;;
61188;SDS011;47054;39.716;2.904;2023-01-08T08:04:36;109.88;;;23.92;;
61188;SDS011;47054;39.716;2.904;2023-01-08T08:07:20;104.90;;;21.92;;
61188;SDS011;47054;39.716;2.904;2023-01-08T08:10:05;101.43;;;22.55;;
61188;SDS011;47054;39.716;2.904;2023-01-08T08:12:50;109.30;;;21.63;;
61188;SDS011;47054;39.716;2.904;2023-01-08T08:15:36;90.25;;;20.60;;
61188;SDS011;47054;39.716;2.904;2023-01-08T08:18:25;86.45;;;20.33;;
61188;SDS011;47054;39.716;2.904;2023-01-08T08:21:09;93.85;;;20.02;;
61188;SDS011;47054;39.716;2.904;2023-01-08T08:23:55;78.88;;;18.50;;
61188;SDS011;47054;39.716;2.904;2023-01-08T08:26:40;69.63;;;18.17;;
61188;SDS011;47054;39.716;2.904;2023-01-08T08:29:25;84.47;;;18.83;;
61188;SDS011;47054;39.716;2.904;2023-01-08T08:32:09;82.00;;;18.17;;
61188;SDS011;47054;39.716;2.904;2023-01-08T08:34:54;77.32;;;18.60;;
61188;SDS011;47054;39.716;2.904;2023-01-08T08:37:39;70.82;;;18.40;;
61188;SDS011;47054;39.716;2.904;2023-01-08T08:40:25;71.63;;;17.98;;
61188;SDS011;47054;39.716;2.904;2023-01-08T08:43:11;72.70;;;17.88;;
61188;SDS011;47054;39.716;2.904;2023-01-08T08:45:55;70.93;;;15.98;;
61188;SDS011;47054;39.716;2.904;2023-01-08T08:48:40;68.15;;;16.38;;
61188;SDS011;47054;39.716;2.904;2023-01-08T08:51:29;65.57;;;17.70;;
61188;SDS011;47054;39.716;2.904;2023-01-08T08:54:16;62.10;;;14.27;;
61188;SDS011;47054;39.716;2.904;2023-01-08T08:57:01;57.20;;;15.55;;
61188;SDS011;47054;39.716;2.904;2023-01-08T08:59:47;49.15;;;13.52;;
61188;SDS011;47054;39.716;2.904;2023-01-08T09:02:32;56.40;;;13.90;;
61188;SDS011;47054;39.716;2.904;2023-01-08T09:05:16;50.53;;;12.85;;
61188;SDS011;47054;39.716;2.904;2023-01-08T09:08:02;48.85;;;12.35;;
61188;SDS011;47054;39.716;2.904;2023-01-08T09:10:47;51.28;;;12.95;;
61188;SDS011;47054;39.716;2.904;2023-01-08T09:13:31;39.10;;;11.23;;
61188;SDS011;47054;39.716;2.904;2023-01-08T09:16:16;48.50;;;11.70;;
61188;SDS011;47054;39.716;2.904;2023-01-08T09:19:04;46.85;;;12.05;;
61188;SDS011;47054;39.716;2.904;2023-01-08T09:21:50;42.47;;;12.45;;
61188;SDS011;47054;39.716;2.904;2023-01-08T09:24:34;37.60;;;12.15;;
61188;SDS011;47054;39.716;2.904;2023-01-08T09:27:19;44.72;;;11.80;;
61188;SDS011;47054;39.716;2.904;2023-01-08T09:30:04;51.63;;;12.10;;
61188;SDS011;47054;39.716;2.904;2023-01-08T09:32:49;41.10;;;10.88;;
61188;SDS011;47054;39.716;2.904;2023-01-08T09:35:34;44.25;;;11.20;;
61188;SDS011;47054;39.716;2.904;2023-01-08T09:38:18;40.15;;;10.75;;
61188;SDS011;47054;39.716;2.904;2023-01-08T09:41:04;33.42;;;9.73;;
61188;SDS011;47054;39.716;2.904;2023-01-08T09:43:54;38.13;;;10.23;;
61188;SDS011;47054;39.716;2.904;2023-01-08T09:46:41;41.33;;;11.25;;
61188;SDS011;47054;39.716;2.904;2023-01-08T09:49:31;33.95;;;10.00;;
61188;SDS011;47054;39.716;2.904;2023-01-08T09:52:26;36.00;;;9.75;;
61188;SDS011;47054;39.716;2.904;2023-01-08T09:55:16;30.63;;;9.05;;
61188;SDS011;47054;39.716;2.904;2023-01-08T09:58:01;31.85;;;10.45;;
61188;SDS011;47054;39.716;2.904;2023-01-08T10:00:47;30.20;;;8.90;;
61188;SDS011;47054;39.716;2.904;2023-01-08T10:03:41;32.80;;;9.82;;
61188;SDS011;47054;39.716;2.904;2023-01-08T10:06:28;35.53;;;10.50;;
61188;SDS011;47054;39.716;2.904;2023-01-08T10:09:15;29.50;;;9.52;;
61188;SDS011;47054;39.716;2.904;2023-01-08T10:12:00;37.65;;;10.57;;
61188;SDS011;47054;39.716;2.904;2023-01-08T10:14:47;28.25;;;8.48;;
61188;SDS011;47054;39.716;2.904;2023-01-08T10:20:22;31.75;;;9.13;;
61188;SDS011;47054;39.716;2.904;2023-01-08T10:23:09;29.88;;;8.50;;
61188;SDS011;47054;39.716;2.904;2023-01-08T10:26:02;32.67;;;9.13;;
61188;SDS011;47054;39.716;2.904;2023-01-08T10:28:47;26.30;;;8.43;;
61188;SDS011;47054;39.716;2.904;2023-01-08T10:31:31;25.15;;;8.70;;
61188;SDS011;47054;39.716;2.904;2023-01-08T10:34:20;23.25;;;7.57;;
61188;SDS011;47054;39.716;2.904;2023-01-08T10:40:37;22.65;;;7.30;;
61188;SDS011;47054;39.716;2.904;2023-01-08T10:43:28;25.33;;;7.38;;
61188;SDS011;47054;39.716;2.904;2023-01-08T10:46:41;21.73;;;7.22;;
61188;SDS011;47054;39.716;2.904;2023-01-08T10:49:32;27.27;;;7.35;;
61188;SDS011;47054;39.716;2.904;2023-01-08T10:55:26;24.17;;;7.55;;
61188;SDS011;47054;39.716;2.904;2023-01-08T10:58:13;24.88;;;7.35;;
61188;SDS011;47054;39.716;2.904;2023-01-08T11:01:08;22.90;;;7.20;;
61188;SDS011;47054;39.716;2.904;2023-01-08T11:03:58;25.55;;;6.80;;
61188;SDS011;47054;39.716;2.904;2023-01-08T11:06:45;23.10;;;6.80;;
61188;SDS011;47054;39.716;2.904;2023-01-08T11:09:32;18.88;;;6.28;;
61188;SDS011;47054;39.716;2.904;2023-01-08T11:12:40;20.20;;;6.25;;
61188;SDS011;47054;39.716;2.904;2023-01-08T11:15:38;19.77;;;5.68;;
61188;SDS011;47054;39.716;2.904;2023-01-08T11:18:24;21.48;;;6.22;;
61188;SDS011;47054;39.716;2.904;2023-01-08T11:21:52;19.25;;;6.20;;
61188;SDS011;47054;39.716;2.904;2023-01-08T11:24:23;21.10;;;5.68;;
61188;SDS011;47054;39.716;2.904;2023-01-08T11:33:05;17.48;;;4.97;;
61188;SDS011;47054;39.716;2.904;2023-01-08T11:36:04;18.90;;;4.93;;
61188;SDS011;47054;39.716;2.904;2023-01-08T11:38:57;21.00;;;6.25;;
61188;SDS011;47054;39.716;2.904;2023-01-08T11:57:24;14.43;;;4.93;;
61188;SDS011;47054;39.716;2.904;2023-01-08T12:03:19;13.02;;;4.50;;
61188;SDS011;47054;39.716;2.904;2023-01-08T12:06:19;13.82;;;4.60;;
61188;SDS011;47054;39.716;2.904;2023-01-08T12:09:13;18.27;;;4.75;;
61188;SDS011;47054;39.716;2.904;2023-01-08T12:21:05;10.20;;;3.60;;
61188;SDS011;47054;39.716;2.904;2023-01-08T12:27:32;16.23;;;4.18;;
61188;SDS011;47054;39.716;2.904;2023-01-08T12:30:31;11.20;;;4.20;;
61188;SDS011;47054;39.716;2.904;2023-01-08T12:36:12;7.22;;;3.45;;
61188;SDS011;47054;39.716;2.904;2023-01-08T12:39:03;21.70;;;5.03;;
61188;SDS011;47054;39.716;2.904;2023-01-08T12:41:53;10.33;;;4.20;;
61188;SDS011;47054;39.716;2.904;2023-01-08T12:44:42;13.32;;;3.75;;
61188;SDS011;47054;39.716;2.904;2023-01-08T12:47:29;13.82;;;4.15;;
61188;SDS011;47054;39.716;2.904;2023-01-08T12:50:55;9.38;;;3.80;;
61188;SDS011;47054;39.716;2.904;2023-01-08T12:53:36;12.52;;;4.30;;
61188;SDS011;47054;39.716;2.904;2023-01-08T13:05:46;8.80;;;3.70;;
61188;SDS011;47054;39.716;2.904;2023-01-08T13:08:33;9.68;;;3.28;;
61188;SDS011;47054;39.716;2.904;2023-01-08T13:11:24;11.48;;;4.03;;
61188;SDS011;47054;39.716;2.904;2023-01-08T13:14:20;10.00;;;3.65;;
61188;SDS011;47054;39.716;2.904;2023-01-08T13:17:07;9.13;;;4.03;;
61188;SDS011;47054;39.716;2.904;2023-01-08T13:20:02;11.18;;;3.85;;
61188;SDS011;47054;39.716;2.904;2023-01-08T13:22:59;8.05;;;3.63;;
61188;SDS011;47054;39.716;2.904;2023-01-08T13:25:52;9.35;;;3.83;;
61188;SDS011;47054;39.716;2.904;2023-01-08T13:31:26;9.48;;;3.75;;
61188;SDS011;47054;39.716;2.904;2023-01-08T13:34:19;7.68;;;3.30;;
61188;SDS011;47054;39.716;2.904;2023-01-08T13:37:07;10.68;;;3.63;;
61188;SDS011;47054;39.716;2.904;2023-01-08T13:39:53;12.43;;;4.00;;
61188;SDS011;47054;39.716;2.904;2023-01-08T13:42:39;9.82;;;3.53;;
61188;SDS011;47054;39.716;2.904;2023-01-08T13:45:25;12.15;;;3.80;;
61188;SDS011;47054;39.716;2.904;2023-01-08T13:48:19;7.72;;;3.72;;
61188;SDS011;47054;39.716;2.904;2023-01-08T13:51:16;9.52;;;3.42;;
61188;SDS011;47054;39.716;2.904;2023-01-08T13:54:38;9.48;;;3.67;;
61188;SDS011;47054;39.716;2.904;2023-01-08T13:57:25;6.82;;;3.10;;
61188;SDS011;47054;39.716;2.904;2023-01-08T14:00:25;9.43;;;3.92;;
61188;SDS011;47054;39.716;2.904;2023-01-08T14:03:47;9.27;;;4.00;;
61188;SDS011;47054;39.716;2.904;2023-01-08T14:06:28;9.52;;;3.72;;
61188;SDS011;47054;39.716;2.904;2023-01-08T14:09:19;11.55;;;4.13;;
61188;SDS011;47054;39.716;2.904;2023-01-08T14:12:10;9.20;;;3.78;;
61188;SDS011;47054;39.716;2.904;2023-01-08T14:14:58;10.77;;;3.60;;
61188;SDS011;47054;39.716;2.904;2023-01-08T14:17:43;7.53;;;3.70;;
61188;SDS011;47054;39.716;2.904;2023-01-08T14:20:30;12.30;;;4.43;;
61188;SDS011;47054;39.716;2.904;2023-01-08T14:23:18;8.57;;;3.42;;
61188;SDS011;47054;39.716;2.904;2023-01-08T14:26:05;8.77;;;3.30;;
61188;SDS011;47054;39.716;2.904;2023-01-08T14:28:54;8.30;;;3.13;;
61188;SDS011;47054;39.716;2.904;2023-01-08T14:31:44;10.73;;;3.38;;
61188;SDS011;47054;39.716;2.904;2023-01-08T14:34:45;9.82;;;3.45;;
61188;SDS011;47054;39.716;2.904;2023-01-08T14:37:36;8.83;;;2.97;;
61188;SDS011;47054;39.716;2.904;2023-01-08T14:40:30;7.68;;;3.33;;
61188;SDS011;47054;39.716;2.904;2023-01-08T14:43:19;7.82;;;3.55;;
61188;SDS011;47054;39.716;2.904;2023-01-08T14:46:08;8.38;;;3.50;;
61188;SDS011;47054;39.716;2.904;2023-01-08T14:49:03;9.90;;;3.63;;
61188;SDS011;47054;39.716;2.904;2023-01-08T14:51:48;9.20;;;3.30;;
61188;SDS011;47054;39.716;2.904;2023-01-08T14:54:33;7.75;;;3.40;;
61188;SDS011;47054;39.716;2.904;2023-01-08T14:57:19;8.30;;;3.33;;
61188;SDS011;47054;39.716;2.904;2023-01-08T15:00:13;9.77;;;3.47;;
61188;SDS011;47054;39.716;2.904;2023-01-08T15:03:00;6.35;;;3.13;;
61188;SDS011;47054;39.716;2.904;2023-01-08T15:05:48;5.80;;;3.10;;
61188;SDS011;47054;39.716;2.904;2023-01-08T15:14:12;7.68;;;3.17;;
61188;SDS011;47054;39.716;2.904;2023-01-08T15:17:07;7.20;;;3.60;;
61188;SDS011;47054;39.716;2.904;2023-01-08T15:19:55;8.55;;;3.45;;
61188;SDS011;47054;39.716;2.904;2023-01-08T15:22:44;7.05;;;3.28;;
61188;SDS011;47054;39.716;2.904;2023-01-08T15:25:29;8.52;;;3.45;;
61188;SDS011;47054;39.716;2.904;2023-01-08T15:28:14;7.18;;;3.03;;
61188;SDS011;47054;39.716;2.904;2023-01-08T15:30:59;8.20;;;3.50;;
61188;SDS011;47054;39.716;2.904;2023-01-08T15:33:44;6.63;;;3.28;;
61188;SDS011;47054;39.716;2.904;2023-01-08T15:36:29;8.95;;;3.42;;
61188;SDS011;47054;39.716;2.904;2023-01-08T15:39:13;7.32;;;3.13;;
61188;SDS011;47054;39.716;2.904;2023-01-08T15:42:10;7.65;;;3.40;;
61188;SDS011;47054;39.716;2.904;2023-01-08T15:45:34;8.55;;;3.53;;
61188;SDS011;47054;39.716;2.904;2023-01-08T15:48:20;9.23;;;3.28;;
61188;SDS011;47054;39.716;2.904;2023-01-08T15:51:04;7.90;;;3.30;;
61188;SDS011;47054;39.716;2.904;2023-01-08T15:53:49;8.02;;;3.17;;
61188;SDS011;47054;39.716;2.904;2023-01-08T15:56:34;8.02;;;2.90;;
61188;SDS011;47054;39.716;2.904;2023-01-08T15:59:20;8.00;;;3.17;;
61188;SDS011;47054;39.716;2.904;2023-01-08T16:02:04;7.85;;;3.17;;
61188;SDS011;47054;39.716;2.904;2023-01-08T16:04:52;6.90;;;3.03;;
61188;SDS011;47054;39.716;2.904;2023-01-08T16:07:38;8.35;;;3.10;;
61188;SDS011;47054;39.716;2.904;2023-01-08T16:10:31;6.60;;;2.80;;
61188;SDS011;47054;39.716;2.904;2023-01-08T16:13:16;6.35;;;2.70;;
61188;SDS011;47054;39.716;2.904;2023-01-08T16:16:05;7.97;;;2.95;;
61188;SDS011;47054;39.716;2.904;2023-01-08T16:18:53;5.32;;;3.00;;
61188;SDS011;47054;39.716;2.904;2023-01-08T16:21:38;7.00;;;2.97;;
61188;SDS011;47054;39.716;2.904;2023-01-08T16:24:29;7.18;;;3.33;;
61188;SDS011;47054;39.716;2.904;2023-01-08T16:27:14;7.95;;;3.17;;
61188;SDS011;47054;39.716;2.904;2023-01-08T16:29:59;8.85;;;3.40;;
61188;SDS011;47054;39.716;2.904;2023-01-08T16:32:43;7.22;;;3.22;;
61188;SDS011;47054;39.716;2.904;2023-01-08T16:35:31;5.55;;;3.08;;
61188;SDS011;47054;39.716;2.904;2023-01-08T16:38:15;9.23;;;3.35;;
61188;SDS011;47054;39.716;2.904;2023-01-08T16:41:03;8.50;;;3.33;;
61188;SDS011;47054;39.716;2.904;2023-01-08T16:43:48;9.48;;;3.30;;
61188;SDS011;47054;39.716;2.904;2023-01-08T16:46:33;7.90;;;3.00;;
61188;SDS011;47054;39.716;2.904;2023-01-08T16:49:17;11.13;;;3.00;;
61188;SDS011;47054;39.716;2.904;2023-01-08T16:52:02;7.97;;;3.17;;
61188;SDS011;47054;39.716;2.904;2023-01-08T16:54:47;7.68;;;3.28;;
61188;SDS011;47054;39.716;2.904;2023-01-08T16:57:32;7.40;;;3.05;;
61188;SDS011;47054;39.716;2.904;2023-01-08T17:00:17;10.63;;;3.45;;
61188;SDS011;47054;39.716;2.904;2023-01-08T17:03:02;9.93;;;3.00;;
61188;SDS011;47054;39.716;2.904;2023-01-08T17:05:48;9.05;;;3.00;;
61188;SDS011;47054;39.716;2.904;2023-01-08T17:08:34;8.30;;;3.50;;
61188;SDS011;47054;39.716;2.904;2023-01-08T17:11:22;10.70;;;3.25;;
61188;SDS011;47054;39.716;2.904;2023-01-08T17:14:07;9.32;;;3.30;;
61188;SDS011;47054;39.716;2.904;2023-01-08T17:16:53;7.00;;;3.08;;
61188;SDS011;47054;39.716;2.904;2023-01-08T17:19:37;5.88;;;3.00;;
61188;SDS011;47054;39.716;2.904;2023-01-08T17:22:22;4.90;;;2.92;;
61188;SDS011;47054;39.716;2.904;2023-01-08T17:25:06;6.65;;;2.97;;
61188;SDS011;47054;39.716;2.904;2023-01-08T17:27:52;6.57;;;3.10;;
61188;SDS011;47054;39.716;2.904;2023-01-08T17:30:36;7.50;;;3.13;;
61188;SDS011;47054;39.716;2.904;2023-01-08T17:33:20;6.10;;;3.00;;
61188;SDS011;47054;39.716;2.904;2023-01-08T17:36:12;5.55;;;3.03;;
61188;SDS011;47054;39.716;2.904;2023-01-08T17:38:59;6.35;;;2.92;;
61188;SDS011;47054;39.716;2.904;2023-01-08T17:41:43;7.63;;;2.95;;
61188;SDS011;47054;39.716;2.904;2023-01-08T17:44:46;5.90;;;3.10;;
61188;SDS011;47054;39.716;2.904;2023-01-08T17:47:30;6.75;;;3.10;;
61188;SDS011;47054;39.716;2.904;2023-01-08T17:50:16;8.32;;;3.55;;
61188;SDS011;47054;39.716;2.904;2023-01-08T17:53:01;7.35;;;3.30;;
61188;SDS011;47054;39.716;2.904;2023-01-08T17:55:46;6.72;;;3.22;;
61188;SDS011;47054;39.716;2.904;2023-01-08T17:58:30;6.97;;;2.97;;
61188;SDS011;47054;39.716;2.904;2023-01-08T18:01:16;7.50;;;3.33;;